createdAt,value
2023-03-21T00:01:54.722Z,101153.16
2023-03-21T00:04:24.704Z,101148.66
2023-03-21T00:06:53.732Z,101145.16
2023-03-21T00:09:22.263Z,101147.81
2023-03-21T00:11:50.993Z,101140.81
2023-03-21T00:14:20.530Z,101135.50
2023-03-21T00:16:54.088Z,101136.34
2023-03-21T00:19:25.200Z,101139.84
2023-03-21T00:22:07.000Z,101135.50
2023-03-21T00:24:36.958Z,101128.50
2023-03-21T00:27:33.660Z,101123.19
2023-03-21T00:29:56.696Z,101117.03
2023-03-21T00:32:25.714Z,101111.81
2023-03-21T00:35:16.515Z,101111.72
2023-03-21T00:37:43.280Z,101113.50
2023-03-21T00:40:25.484Z,101114.38
2023-03-21T00:42:56.743Z,101106.50
2023-03-21T00:45:25.221Z,101100.22
2023-03-21T00:47:53.958Z,101096.81
2023-03-21T00:50:22.531Z,101094.16
2023-03-21T00:52:52.670Z,101091.50
2023-03-21T00:55:21.333Z,101084.53
2023-03-21T00:57:56.310Z,101080.03
2023-03-21T01:00:30.289Z,101080.88
2023-03-21T01:03:24.555Z,101081.00
2023-03-21T01:06:07.195Z,101076.53
2023-03-21T01:08:51.238Z,101067.84
2023-03-21T01:11:24.159Z,101069.53
2023-03-21T01:14:07.191Z,101058.91
2023-03-21T01:16:39.511Z,101063.38
2023-03-21T01:19:14.865Z,101064.31
2023-03-21T01:21:50.749Z,101060.81
2023-03-21T01:24:19.683Z,101055.50
2023-03-21T01:26:47.998Z,101056.50
2023-03-21T01:29:17.162Z,101050.19
2023-03-21T01:31:45.697Z,101056.34
2023-03-21T01:34:14.680Z,101047.53
2023-03-21T01:36:43.458Z,101051.19
2023-03-21T01:39:17.645Z,101052.00
2023-03-21T01:41:49.072Z,101051.19
2023-03-21T01:44:20.963Z,101049.47
2023-03-21T01:47:11.511Z,101046.81
2023-03-21T01:50:08.507Z,101043.41
2023-03-21T01:52:57.151Z,101049.47
2023-03-21T01:55:31.493Z,101044.16
2023-03-21T01:58:06.643Z,101033.78
2023-03-21T02:00:56.921Z,101030.13
2023-03-21T02:03:51.327Z,101027.38
2023-03-21T02:06:44.113Z,101023.16
2023-03-21T02:09:24.546Z,101021.44
2023-03-21T02:11:54.856Z,101024.72
2023-03-21T02:14:29.246Z,101018.78
2023-03-21T02:17:22.002Z,101009.00
2023-03-21T02:20:35.801Z,101012.53
2023-03-21T02:23:42.055Z,101017.84
2023-03-21T02:27:04.042Z,101016.97
2023-03-21T02:30:20.210Z,101006.44
2023-03-21T02:33:22.279Z,101009.09
2023-03-21T02:36:18.568Z,101014.31
2023-03-21T02:38:54.660Z,101016.13
2023-03-21T02:41:46.688Z,101013.47
2023-03-21T02:44:50.411Z,101010.09
2023-03-21T02:47:35.986Z,101012.75
2023-03-21T02:50:18.658Z,101012.75
2023-03-21T02:52:48.195Z,100995.09
2023-03-21T02:55:24.807Z,100998.72
2023-03-21T02:58:11.755Z,100992.44
2023-03-21T03:00:44.995Z,100985.44
2023-03-21T03:03:33.054Z,100981.06
2023-03-21T03:06:04.304Z,100985.44
2023-03-21T03:09:02.889Z,100983.72
2023-03-21T03:11:34.670Z,100978.41
2023-03-21T03:14:46.901Z,100980.50
2023-03-21T03:17:23.421Z,100984.72
2023-03-21T03:19:51.745Z,100990.88
2023-03-21T03:22:43.275Z,100993.63
2023-03-21T03:25:23.028Z,100988.31
2023-03-21T03:27:56.710Z,100983.00
2023-03-21T03:30:32.298Z,100984.72
2023-03-21T03:33:08.551Z,100983.97
2023-03-21T03:35:39.352Z,100982.16
2023-03-21T03:38:07.798Z,100981.31
2023-03-21T03:40:50.836Z,100981.31
2023-03-21T03:43:44.569Z,100987.38
2023-03-21T03:47:17.468Z,100988.31
2023-03-21T03:50:19.280Z,100991.13
2023-03-21T03:52:57.466Z,100999.91
2023-03-21T03:55:34.878Z,100995.44
2023-03-21T03:58:21.648Z,100989.28
2023-03-21T04:00:54.431Z,100998.22
2023-03-21T04:03:23.450Z,100989.28
2023-03-21T04:05:52.501Z,100991.13
2023-03-21T04:08:23.432Z,100988.56
2023-03-21T04:10:55.993Z,100989.41
2023-03-21T04:13:26.073Z,100983.47
2023-03-21T04:16:04.954Z,100984.31
2023-03-21T04:18:34.716Z,100986.84
2023-03-21T04:21:04.042Z,100985.03
2023-03-21T04:23:33.444Z,100980.69
2023-03-21T04:26:01.827Z,100985.91
2023-03-21T04:28:37.375Z,100982.53
2023-03-21T04:31:41.929Z,100980.69
2023-03-21T04:34:13.779Z,100981.53
2023-03-21T04:36:47.702Z,100975.50
2023-03-21T04:39:18.099Z,100976.47
2023-03-21T04:41:50.153Z,100981.78
2023-03-21T04:44:19.145Z,100981.78
2023-03-21T04:46:48.404Z,100977.53
2023-03-21T04:49:18.803Z,100982.63
2023-03-21T04:51:47.170Z,100982.75
2023-03-21T04:54:21.230Z,100973.94
2023-03-21T04:56:49.620Z,100988.16
2023-03-21T04:59:19.050Z,100978.41
2023-03-21T05:01:47.572Z,100975.84
2023-03-21T05:04:16.472Z,100984.66
2023-03-21T05:06:46.038Z,100976.81
2023-03-21T05:09:14.715Z,100987.41
2023-03-21T05:11:43.489Z,100982.13
2023-03-21T05:14:18.875Z,100980.53
2023-03-21T05:16:53.712Z,100984.78
2023-03-21T05:19:36.392Z,100978.50
2023-03-21T05:22:10.141Z,100981.16
2023-03-21T05:24:42.215Z,100990.09
2023-03-21T05:27:35.997Z,100983.09
2023-03-21T05:30:18.175Z,100983.94
2023-03-21T05:32:50.037Z,100981.28
2023-03-21T05:35:19.342Z,100987.53
2023-03-21T05:37:48.067Z,100985.75
2023-03-21T05:40:17.551Z,100989.25
2023-03-21T05:42:48.429Z,100984.88
2023-03-21T05:45:22.311Z,100981.50
2023-03-21T05:47:52.413Z,100993.72
2023-03-21T05:50:24.806Z,100994.56
2023-03-21T05:53:10.095Z,100992.00
2023-03-21T05:55:39.179Z,100992.84
2023-03-21T05:58:12.138Z,100991.16
2023-03-21T06:00:45.481Z,100992.84
2023-03-21T06:03:29.653Z,100987.66
2023-03-21T06:06:12.468Z,100995.38
2023-03-21T06:08:49.020Z,101001.56
2023-03-21T06:11:35.079Z,100997.22
2023-03-21T06:14:32.752Z,101003.47
2023-03-21T06:17:28.016Z,100998.16
2023-03-21T06:20:07.163Z,100999.03
2023-03-21T06:22:44.969Z,101001.56
2023-03-21T06:25:13.383Z,101001.56
2023-03-21T06:27:42.579Z,101006.00
2023-03-21T06:30:12.127Z,101010.50
2023-03-21T06:32:49.228Z,101010.38
2023-03-21T06:35:19.261Z,101008.56
2023-03-21T06:37:49.450Z,101009.41
2023-03-21T06:40:18.880Z,101013.03
2023-03-21T06:42:47.913Z,101001.69
2023-03-21T06:45:16.734Z,101009.41
2023-03-21T06:47:45.878Z,101006.75
2023-03-21T06:50:26.250Z,101008.34
2023-03-21T06:52:54.907Z,101018.72
2023-03-21T06:55:27.047Z,101011.75
2023-03-21T06:57:57.652Z,101012.56
2023-03-21T07:00:28.852Z,101020.44
2023-03-21T07:02:57.993Z,101020.44
2023-03-21T07:05:27.649Z,101013.19
2023-03-21T07:07:56.392Z,101015.22
2023-03-21T07:10:29.350Z,101020.44
2023-03-21T07:13:07.738Z,101009.91
2023-03-21T07:15:44.215Z,101010.66
2023-03-21T07:18:14.292Z,101015.97
2023-03-21T07:20:53.006Z,101016.81
2023-03-21T07:23:23.497Z,101010.53
2023-03-21T07:25:52.561Z,101021.06
2023-03-21T07:28:22.539Z,101020.81
2023-03-21T07:31:00.560Z,101013.69
2023-03-21T07:33:29.312Z,101026.00
2023-03-21T07:36:00.982Z,101025.03
2023-03-21T07:38:32.510Z,101026.75
2023-03-21T07:41:01.098Z,101029.31
2023-03-21T07:43:33.363Z,101030.13
2023-03-21T07:46:01.842Z,101024.72
2023-03-21T07:48:31.727Z,101026.28
2023-03-21T07:51:02.585Z,101032.22
2023-03-21T07:53:31.277Z,101025.09
2023-03-21T07:55:59.548Z,101032.94
2023-03-21T07:58:28.719Z,101029.34
2023-03-21T08:00:58.525Z,101037.31
2023-03-21T08:03:29.696Z,101048.06
2023-03-21T08:06:01.638Z,101043.94
2023-03-21T08:08:30.509Z,101048.16
2023-03-21T08:10:58.969Z,101039.09
2023-03-21T08:13:27.928Z,101045.16
2023-03-21T08:15:56.248Z,101042.28
2023-03-21T08:18:25.028Z,101035.03
2023-03-21T08:20:55.647Z,101034.09
2023-03-21T08:23:24.867Z,101033.00
2023-03-21T08:25:54.361Z,101036.50
2023-03-21T08:28:23.452Z,101039.16
2023-03-21T08:30:51.815Z,101033.66
2023-03-21T08:33:23.026Z,101033.41
2023-03-21T08:35:51.685Z,101034.13
2023-03-21T08:38:20.874Z,101041.25
2023-03-21T08:40:50.554Z,101042.84
2023-03-21T08:43:19.214Z,101040.69
2023-03-21T08:45:47.822Z,101035.47
2023-03-21T08:48:16.608Z,101031.00
2023-03-21T08:50:45.081Z,101031.88
2023-03-21T08:53:13.795Z,101036.94
2023-03-21T08:55:42.173Z,101028.84
2023-03-21T08:58:11.462Z,101034.16
2023-03-21T09:00:39.854Z,101036.72
2023-03-21T09:03:10.622Z,101040.22
2023-03-21T09:05:40.933Z,101039.13
2023-03-21T09:08:09.634Z,101038.41
2023-03-21T09:10:38.048Z,101032.84
2023-03-21T09:13:06.875Z,101033.69
2023-03-21T09:15:35.591Z,101032.84
2023-03-21T09:18:13.580Z,101023.06
2023-03-21T09:20:43.231Z,101029.97
2023-03-21T09:23:13.377Z,101034.31
2023-03-21T09:25:42.480Z,101030.56
2023-03-21T09:28:13.271Z,101036.03
2023-03-21T09:30:41.745Z,101037.69
2023-03-21T09:33:13.363Z,101033.00
2023-03-21T09:35:43.035Z,101039.53
2023-03-21T09:38:11.852Z,101043.28
2023-03-21T09:41:27.929Z,101033.09
2023-03-21T09:44:15.313Z,101032.28
2023-03-21T09:47:06.223Z,101034.44
2023-03-21T09:49:43.916Z,101034.44
2023-03-21T09:52:22.512Z,101033.50
2023-03-21T09:54:52.392Z,101029.84
2023-03-21T09:57:40.254Z,101027.19
2023-03-21T10:00:25.881Z,101034.22
2023-03-21T10:03:06.973Z,101022.72
2023-03-21T10:05:39.573Z,101016.44
2023-03-21T10:08:19.521Z,101029.75
2023-03-21T10:10:50.911Z,101019.72
2023-03-21T10:13:26.619Z,101019.72
2023-03-21T10:16:02.259Z,101015.34
2023-03-21T10:18:31.382Z,101007.38
2023-03-21T10:21:00.106Z,101011.03
2023-03-21T10:23:29.340Z,101008.22
2023-03-21T10:26:01.281Z,101015.13
2023-03-21T10:31:28.639Z,101001.84
2023-03-21T10:34:03.877Z,101007.16
2023-03-21T10:36:32.902Z,101015.13
2023-03-21T10:39:05.264Z,101009.69
2023-03-21T10:41:34.304Z,101001.84
2023-03-21T10:44:15.545Z,100998.19
2023-03-21T10:46:56.453Z,100993.84
2023-03-21T10:49:30.042Z,100991.19
2023-03-21T10:52:01.128Z,100996.25
2023-03-21T10:54:31.522Z,100992.88
2023-03-21T10:57:16.647Z,100992.88
2023-03-21T10:59:58.272Z,101002.56
2023-03-21T11:02:32.177Z,100996.41
2023-03-21T11:05:09.422Z,100997.25
2023-03-21T11:07:38.146Z,100995.41
2023-03-21T11:10:20.061Z,100999.91
2023-03-21T11:12:57.833Z,100992.88
2023-03-21T11:15:38.327Z,100990.22
2023-03-21T11:18:24.745Z,100986.50
2023-03-21T11:21:06.777Z,100991.66
2023-03-21T11:23:38.717Z,100988.16
2023-03-21T11:26:12.645Z,100981.16
2023-03-21T11:28:41.842Z,100977.41
2023-03-21T11:31:10.233Z,100983.56
2023-03-21T11:34:00.438Z,100966.88
2023-03-21T11:36:34.538Z,100967.72
2023-03-21T11:39:39.861Z,100965.78
2023-03-21T11:42:31.385Z,100955.03
2023-03-21T11:45:26.306Z,100953.47
2023-03-21T11:48:00.222Z,100956.84
2023-03-21T11:50:48.160Z,100939.31
2023-03-21T11:53:42.076Z,100931.59
2023-03-21T11:56:38.627Z,100927.44
2023-03-21T11:59:32.170Z,100923.22
2023-03-21T12:02:19.106Z,100928.16
2023-03-21T12:05:32.822Z,100919.53
2023-03-21T12:08:12.755Z,100932.50
2023-03-21T12:11:31.605Z,100917.13
2023-03-21T12:14:28.386Z,100922.72
2023-03-21T12:17:49.402Z,100916.41
2023-03-21T12:20:31.278Z,100911.09
2023-03-21T12:23:31.688Z,100918.84
2023-03-21T12:26:24.165Z,100902.03
2023-03-21T12:29:19.758Z,100911.28
2023-03-21T12:32:17.141Z,100895.06
2023-03-21T12:35:21.904Z,100892.81
2023-03-21T12:38:18.209Z,100884.03
2023-03-21T12:40:58.242Z,100884.19
2023-03-21T12:43:52.819Z,100877.56
2023-03-21T12:47:01.616Z,100871.50
2023-03-21T12:49:36.452Z,100876.97
2023-03-21T12:52:11.264Z,100864.75
2023-03-21T12:54:50.066Z,100870.91
2023-03-21T12:57:28.154Z,100866.44
2023-03-21T13:00:12.032Z,100856.06
2023-03-21T13:03:27.736Z,100858.56
2023-03-21T13:06:06.668Z,100853.97
2023-03-21T13:08:42.435Z,100849.34
2023-03-21T13:11:18.138Z,100856.38
2023-03-21T13:14:02.588Z,100838.69
2023-03-21T13:16:43.985Z,100848.28
2023-03-21T13:19:40.823Z,100848.88
2023-03-21T13:22:29.456Z,100842.66
2023-03-21T13:25:25.318Z,100837.34
2023-03-21T13:28:05.080Z,100838.94
2023-03-21T13:30:33.421Z,100836.13
2023-03-21T13:33:12.963Z,100826.56
2023-03-21T13:35:43.872Z,100826.56
2023-03-21T13:38:28.711Z,100820.53
2023-03-21T13:41:07.767Z,100814.09
2023-03-21T13:44:06.059Z,100814.97
2023-03-21T13:46:53.485Z,100809.50
2023-03-21T13:49:40.507Z,100802.09
2023-03-21T13:52:12.336Z,100788.78
2023-03-21T13:54:56.331Z,100791.44
2023-03-21T13:57:27.562Z,100787.09
2023-03-21T14:00:30.396Z,100781.25
2023-03-21T14:03:09.359Z,100773.28
2023-03-21T14:05:38.985Z,100771.31
2023-03-21T14:08:15.644Z,100776.91
2023-03-21T14:10:49.464Z,100763.59
2023-03-21T14:13:20.839Z,100771.44
2023-03-21T14:16:14.339Z,100765.16
2023-03-21T14:18:55.082Z,100762.34
2023-03-21T14:21:30.384Z,100767.66
2023-03-21T14:24:01.850Z,100753.25
2023-03-21T14:26:36.653Z,100755.53
2023-03-21T14:29:12.304Z,100761.13
2023-03-21T14:31:48.123Z,100754.69
2023-03-21T14:34:17.072Z,100748.66
2023-03-21T14:36:56.941Z,100740.91
2023-03-21T14:39:32.856Z,100737.28
2023-03-21T14:42:07.464Z,100736.41
2023-03-21T14:44:54.493Z,100728.44
2023-03-21T14:47:28.152Z,100719.72
2023-03-21T14:49:57.690Z,100730.13
2023-03-21T14:52:32.018Z,100722.84
2023-03-21T14:55:01.122Z,100730.38
2023-03-21T14:57:32.101Z,100723.38
2023-03-21T15:00:12.636Z,100734.75
2023-03-21T15:02:42.061Z,100726.88
2023-03-21T15:05:27.391Z,100722.56
2023-03-21T15:08:12.067Z,100724.34
2023-03-21T15:10:40.518Z,100729.84
2023-03-21T15:13:18.535Z,100722.09
2023-03-21T15:15:47.460Z,100718.59
2023-03-21T15:18:20.310Z,100716.91
2023-03-21T15:20:49.350Z,100718.59
2023-03-21T15:23:33.618Z,100711.97
2023-03-21T15:26:05.382Z,100716.47
2023-03-21T15:28:35.003Z,100721.78
2023-03-21T15:31:05.285Z,100722.75
2023-03-21T15:33:33.975Z,100719.38
2023-03-21T15:36:02.368Z,100718.78
2023-03-21T15:38:41.374Z,100714.06
2023-03-21T15:41:20.148Z,100712.63
2023-03-21T15:44:09.254Z,100714.59
2023-03-21T15:46:51.414Z,100711.78
2023-03-21T15:49:32.610Z,100713.75
2023-03-21T15:52:16.389Z,100717.38
2023-03-21T15:54:56.139Z,100711.47
2023-03-21T15:57:38.424Z,100704.72
2023-03-21T16:00:31.581Z,100708.09
2023-03-21T16:03:01.030Z,100706.41
2023-03-21T16:05:32.565Z,100703.97
2023-03-21T16:08:27.552Z,100708.31
2023-03-21T16:11:05.555Z,100712.69
2023-03-21T16:13:33.854Z,100709.28
2023-03-21T16:16:02.519Z,100715.34
2023-03-21T16:18:32.065Z,100711.00
2023-03-21T16:21:01.275Z,100701.31
2023-03-21T16:23:30.050Z,100703.97
2023-03-21T16:25:59.136Z,100699.63
2023-03-21T16:28:27.401Z,100695.97
2023-03-21T16:30:56.043Z,100701.59
2023-03-21T16:33:26.324Z,100699.63
2023-03-21T16:35:57.682Z,100702.41
2023-03-21T16:38:26.143Z,100700.59
2023-03-21T16:40:54.756Z,100702.28
2023-03-21T16:43:22.949Z,100704.25
2023-03-21T16:45:51.680Z,100708.81
2023-03-21T16:48:20.109Z,100710.66
2023-03-21T16:50:48.972Z,100707.28
2023-03-21T16:53:17.341Z,100709.34
2023-03-21T16:55:46.071Z,100710.47
2023-03-21T16:58:15.916Z,100711.56
2023-03-21T17:00:44.726Z,100718.69
2023-03-21T17:03:15.922Z,100717.00
2023-03-21T17:05:44.883Z,100711.09
2023-03-21T17:08:17.265Z,100715.47
2023-03-21T17:10:46.405Z,100712.81
2023-03-21T17:13:14.778Z,100712.66
2023-03-21T17:15:43.618Z,100715.31
2023-03-21T17:18:12.402Z,100714.34
2023-03-21T17:20:42.036Z,100715.31
2023-03-21T17:23:11.126Z,100723.16
2023-03-21T17:25:40.489Z,100719.56
2023-03-21T17:28:09.331Z,100721.22
2023-03-21T17:30:40.432Z,100717.72
2023-03-21T17:33:09.102Z,100717.72
2023-03-21T17:35:38.023Z,100722.22
2023-03-21T17:38:06.912Z,100716.91
2023-03-21T17:40:35.740Z,100719.56
2023-03-21T17:43:06.048Z,100714.22
2023-03-21T17:45:34.654Z,100718.56
2023-03-21T17:48:04.145Z,100714.22
2023-03-21T17:50:37.561Z,100719.56
2023-03-21T17:53:06.873Z,100709.88
2023-03-21T17:55:36.031Z,100716.91
2023-03-21T17:58:05.973Z,100719.56
2023-03-21T18:00:35.388Z,100716.91
2023-03-21T18:03:04.083Z,100715.19
2023-03-21T18:05:33.879Z,100717.84
2023-03-21T18:08:10.459Z,100719.56
2023-03-21T18:10:41.630Z,100719.56
2023-03-21T18:13:10.698Z,100718.69
2023-03-21T18:15:44.803Z,100720.50
2023-03-21T18:18:14.589Z,100728.38
2023-03-21T18:20:53.645Z,100722.47
2023-03-21T18:23:22.556Z,100728.50
2023-03-21T18:25:52.931Z,100728.50
2023-03-21T18:28:21.856Z,100727.78
2023-03-21T18:33:40.685Z,100715.31
2023-03-21T18:36:13.814Z,100724.00
2023-03-21T18:38:42.878Z,100721.34
2023-03-21T18:41:11.974Z,100724.88
2023-03-21T18:44:02.855Z,100725.84
2023-03-21T18:46:30.641Z,100731.16
2023-03-21T18:49:04.085Z,100736.47
2023-03-21T18:51:42.976Z,100734.53
2023-03-21T18:54:12.695Z,100733.94
2023-03-21T18:59:36.547Z,100732.97
2023-03-21T19:02:06.036Z,100736.75
2023-03-21T19:04:34.657Z,100747.41
2023-03-21T19:07:04.915Z,100744.72
2023-03-21T19:09:54.846Z,100745.81
2023-03-21T19:12:22.765Z,100754.66
2023-03-21T19:14:51.425Z,100756.44
2023-03-21T19:18:21.811Z,100752.25
2023-03-21T19:20:10.006Z,100759.38
2023-03-21T19:22:38.845Z,100761.91
2023-03-21T19:25:09.624Z,100769.16
2023-03-21T19:27:38.613Z,100768.19
2023-03-21T19:30:14.831Z,100763.84
2023-03-21T19:32:45.038Z,100776.19
2023-03-21T19:35:14.525Z,100765.53
2023-03-21T19:37:43.611Z,100769.16
2023-03-21T19:40:12.809Z,100771.69
2023-03-21T19:42:43.140Z,100772.69
2023-03-21T19:45:12.265Z,100771.81
2023-03-21T19:47:41.464Z,100778.84
2023-03-21T19:52:59.870Z,100771.81
2023-03-21T19:55:28.396Z,100771.97
2023-03-21T19:57:57.343Z,100774.47
2023-03-21T20:00:25.862Z,100777.84
2023-03-21T20:02:54.846Z,100768.91
2023-03-21T20:05:25.709Z,100781.25
2023-03-21T20:07:55.489Z,100768.91
2023-03-21T20:10:27.669Z,100767.81
2023-03-21T20:12:56.979Z,100781.00
2023-03-21T20:15:28.425Z,100781.97
2023-03-21T20:17:58.853Z,100779.16
2023-03-21T20:20:27.290Z,100783.53
2023-03-21T20:23:06.915Z,100784.38
2023-03-21T20:25:40.723Z,100788.72
2023-03-21T20:28:16.166Z,100791.41
2023-03-21T20:30:54.179Z,100797.56
2023-03-21T20:33:23.007Z,100793.06
2023-03-21T20:36:38.298Z,100791.41
2023-03-21T20:38:58.497Z,100797.56
2023-03-21T20:41:27.629Z,100793.19
2023-03-21T20:46:49.423Z,100793.06
2023-03-21T20:49:20.249Z,100807.34
2023-03-21T20:54:39.052Z,100811.56
2023-03-21T20:57:07.520Z,100816.06
2023-03-21T20:59:36.485Z,100809.88
2023-03-21T21:02:05.462Z,100814.34
2023-03-21T21:04:52.534Z,100816.91
2023-03-21T21:07:22.712Z,100812.69
2023-03-21T21:09:51.497Z,100819.69
2023-03-21T21:12:20.598Z,100810.97
2023-03-21T21:14:49.453Z,100811.69
2023-03-21T21:18:01.913Z,100816.19
2023-03-21T21:20:17.703Z,100822.34
2023-03-21T21:22:58.491Z,100812.69
2023-03-21T21:25:29.209Z,100818.00
2023-03-21T21:27:57.631Z,100818.84
2023-03-21T21:30:26.309Z,100817.13
2023-03-21T21:32:55.276Z,100817.13
2023-03-21T21:35:23.934Z,100818.97
2023-03-21T21:37:53.125Z,100821.72
2023-03-21T21:40:23.556Z,100815.47
2023-03-21T21:42:52.059Z,100821.63
2023-03-21T21:45:20.867Z,100825.97
2023-03-21T21:47:49.260Z,100823.31
2023-03-21T21:50:18.639Z,100821.63
2023-03-21T21:52:54.457Z,100825.97
2023-03-21T21:55:23.205Z,100830.31
2023-03-21T21:57:53.189Z,100823.31
2023-03-21T22:00:22.121Z,100824.28
2023-03-21T22:02:51.513Z,100821.63
2023-03-21T22:05:21.224Z,100826.94
2023-03-21T22:07:52.721Z,100831.31
2023-03-21T22:10:23.933Z,100826.09
2023-03-21T22:12:52.669Z,100826.09
2023-03-21T22:15:24.082Z,100825.13
2023-03-21T22:17:52.587Z,100826.09
2023-03-21T22:20:21.849Z,100816.41
2023-03-21T22:22:50.191Z,100821.63
2023-03-21T22:25:18.893Z,100812.91
2023-03-21T22:27:47.400Z,100824.56
2023-03-21T22:30:17.479Z,100824.56
2023-03-21T22:32:56.480Z,100821.88
2023-03-21T22:35:32.176Z,100826.22
2023-03-21T22:38:00.602Z,100825.38
2023-03-21T22:40:29.409Z,100827.22
2023-03-21T22:42:57.777Z,100827.31
2023-03-21T22:45:26.456Z,100832.78
2023-03-21T22:47:54.896Z,100831.06
2023-03-21T22:50:23.772Z,100831.06
2023-03-21T22:52:52.216Z,100840.03
2023-03-21T22:55:20.929Z,100827.69
2023-03-21T22:57:49.444Z,100830.34
2023-03-21T23:00:20.270Z,100827.69
2023-03-21T23:02:48.708Z,100821.66
2023-03-21T23:05:17.741Z,100819.84
2023-03-21T23:07:46.385Z,100825.19
2023-03-21T23:10:15.148Z,100819.00
2023-03-21T23:12:43.524Z,100816.31
2023-03-21T23:15:12.395Z,100804.97
2023-03-21T23:17:41.144Z,100817.31
2023-03-21T23:20:10.424Z,100815.59
2023-03-21T23:22:39.257Z,100813.94
2023-03-21T23:25:08.720Z,100824.56
2023-03-21T23:27:37.757Z,100819.25
2023-03-21T23:30:07.482Z,100820.94
2023-03-21T23:32:36.372Z,100818.41
2023-03-21T23:35:05.652Z,100817.56
2023-03-21T23:37:33.951Z,100816.72
2023-03-21T23:40:02.859Z,100815.88
2023-03-21T23:42:32.291Z,100823.84
2023-03-21T23:45:01.195Z,100814.19
2023-03-21T23:47:31.285Z,100817.69
2023-03-21T23:49:59.980Z,100813.22
2023-03-21T23:52:28.385Z,100813.34
2023-03-21T23:54:57.048Z,100814.19
2023-03-21T23:57:25.527Z,100816.84
2023-03-21T23:59:56.986Z,100809.84
